createdAt,value
2018-01-08T00:02:10.844Z,4.70
2018-01-08T00:28:06.524Z,4.60
2018-01-08T00:43:53.659Z,4.50
2018-01-08T00:54:16.101Z,4.50
2018-01-08T00:59:22.677Z,4.40
2018-01-08T01:04:31.628Z,4.50
2018-01-08T01:09:42.248Z,4.40
2018-01-08T01:14:49.173Z,4.40
2018-01-08T01:25:11.208Z,4.30
2018-01-08T01:30:22.338Z,4.30
2018-01-08T01:40:41.792Z,4.20
2018-01-08T01:45:51.983Z,4.20
2018-01-08T01:51:01.888Z,4.20
2018-01-08T01:56:10.323Z,4.10
2018-01-08T02:01:18.989Z,4.10
2018-01-08T02:06:23.897Z,4.00
2018-01-08T02:11:30.956Z,4.00
2018-01-08T02:16:37.053Z,4.00
2018-01-08T02:21:42.157Z,4.00
2018-01-08T02:26:49.937Z,3.90
2018-01-08T02:31:56.007Z,3.90
2018-01-08T02:37:17.865Z,3.80
2018-01-08T02:42:23.562Z,3.80
2018-01-08T02:47:35.709Z,3.80
2018-01-08T02:52:45.181Z,3.80
2018-01-08T02:57:56.866Z,3.80
2018-01-08T03:03:03.518Z,3.70
2018-01-08T03:08:12.000Z,3.70
2018-01-08T03:13:17.846Z,3.60
2018-01-08T03:18:28.405Z,3.60
2018-01-08T03:23:38.250Z,3.60
2018-01-08T03:28:44.140Z,3.60
2018-01-08T03:33:55.146Z,3.50
2018-01-08T03:44:16.352Z,3.50
2018-01-08T03:49:24.632Z,3.50
2018-01-08T03:54:32.357Z,3.40
2018-01-08T03:59:37.689Z,3.40
2018-01-08T04:04:47.432Z,3.40
2018-01-08T04:09:59.686Z,3.40
2018-01-08T04:15:09.509Z,3.30
2018-01-08T04:20:17.536Z,3.20
2018-01-08T04:25:24.477Z,3.20
2018-01-08T04:30:30.208Z,3.20
2018-01-08T04:35:34.881Z,3.20
2018-01-08T04:40:40.182Z,3.10
2018-01-08T04:51:06.057Z,3.10
2018-01-08T04:56:21.711Z,3.00
2018-01-08T05:01:26.824Z,3.00
2018-01-08T05:06:39.868Z,3.00
2018-01-08T05:11:50.624Z,3.00
2018-01-08T05:17:12.131Z,2.90
2018-01-08T05:22:21.523Z,2.90
2018-01-08T05:27:28.548Z,2.90
2018-01-08T05:38:15.584Z,2.90
2018-01-08T05:43:21.729Z,3.00
2018-01-08T05:53:48.372Z,3.00
2018-01-08T05:58:52.193Z,3.00
2018-01-08T06:03:58.004Z,3.00
2018-01-08T06:09:12.527Z,3.10
2018-01-08T06:14:19.735Z,3.00
2018-01-08T06:19:36.663Z,3.00
2018-01-08T06:24:45.027Z,3.10
2018-01-08T06:35:11.272Z,3.00
2018-01-08T06:40:34.687Z,3.10
2018-01-08T06:45:50.621Z,3.10
2018-01-08T06:56:22.643Z,3.10
2018-01-08T07:06:59.489Z,3.20
2018-01-08T07:17:28.960Z,3.20
2018-01-08T07:27:54.017Z,3.20
2018-01-08T07:33:03.856Z,3.20
2018-01-08T07:38:20.721Z,3.20
2018-01-08T07:43:33.238Z,3.20
2018-01-08T07:54:03.174Z,3.30
2018-01-08T07:59:19.273Z,3.30
2018-01-08T08:04:26.183Z,3.30
2018-01-08T08:09:37.453Z,3.30
2018-01-08T08:14:56.779Z,3.40
2018-01-08T08:31:00.136Z,3.40
2018-01-08T08:36:21.297Z,3.40
2018-01-08T08:58:21.911Z,3.60
2018-01-08T09:03:37.782Z,3.60
2018-01-08T09:19:35.755Z,3.70
2018-01-08T09:30:20.793Z,3.80
2018-01-08T09:35:43.161Z,4.00
2018-01-08T09:46:43.824Z,4.00
2018-01-08T09:52:00.499Z,4.10
2018-01-08T10:02:53.145Z,4.20
2018-01-08T10:08:13.360Z,4.20
2018-01-08T10:19:02.990Z,4.30
2018-01-08T10:24:21.799Z,4.40
2018-01-08T10:40:24.605Z,4.60
2018-01-08T11:08:32.678Z,5.00
2018-01-08T11:13:44.585Z,5.10
2018-01-08T11:24:17.868Z,5.30
2018-01-08T11:29:33.084Z,5.40
2018-01-08T11:39:55.481Z,6.00
2018-01-08T11:56:08.976Z,6.50
2018-01-08T12:13:11.910Z,6.70
2018-01-08T12:18:30.232Z,6.60
2018-01-08T12:34:48.443Z,6.70
2018-01-08T12:40:16.372Z,6.70
2018-01-08T12:50:56.384Z,6.70
2018-01-08T12:56:11.574Z,6.70
2018-01-08T13:01:37.381Z,6.60
2018-01-08T13:12:19.356Z,6.70
2018-01-08T13:17:29.870Z,6.60
2018-01-08T13:22:45.758Z,6.70
2018-01-08T13:27:56.711Z,6.70
2018-01-08T13:33:17.644Z,6.70
2018-01-08T13:38:38.983Z,6.70
2018-01-08T13:49:22.356Z,6.80
2018-01-08T13:54:54.823Z,6.80
2018-01-08T14:00:16.959Z,6.80
2018-01-08T14:05:32.941Z,6.90
2018-01-08T14:10:58.359Z,6.90
2018-01-08T15:15:36.846Z,6.20
2018-01-08T15:20:51.262Z,6.20
2018-01-08T15:31:29.244Z,6.00
2018-01-08T15:42:20.759Z,5.90
2018-01-08T15:53:29.966Z,5.70
2018-01-08T15:58:40.376Z,5.70
2018-01-08T16:03:59.600Z,5.60
2018-01-08T16:09:30.173Z,5.50
2018-01-08T16:26:25.250Z,5.30
2018-01-08T16:48:31.469Z,5.10
2018-01-08T16:53:34.078Z,5.10
2018-01-08T17:03:56.170Z,5.00
2018-01-08T17:08:58.773Z,5.00
2018-01-08T17:14:01.368Z,4.90
2018-01-08T17:19:03.987Z,4.90
2018-01-08T17:24:06.535Z,4.80
2018-01-08T17:29:09.102Z,4.80
2018-01-08T17:34:11.760Z,4.80
2018-01-08T17:39:14.402Z,4.70
2018-01-08T17:44:17.069Z,4.60
2018-01-08T17:49:19.716Z,4.60
2018-01-08T17:54:22.289Z,4.50
2018-01-08T17:59:24.891Z,4.50
2018-01-08T18:04:27.502Z,4.50
2018-01-08T18:09:30.063Z,4.40
2018-01-08T18:14:32.763Z,4.40
2018-01-08T18:19:35.425Z,4.30
2018-01-08T18:24:38.096Z,4.30
2018-01-08T18:29:40.686Z,4.20
2018-01-08T18:34:43.314Z,4.20
2018-01-08T18:39:45.959Z,4.10
2018-01-08T18:44:49.311Z,4.10
2018-01-08T18:49:52.634Z,4.00
2018-01-08T18:54:55.210Z,4.00
2018-01-08T18:59:57.776Z,4.00
2018-01-08T19:05:00.354Z,3.90
2018-01-08T19:10:03.005Z,3.90
2018-01-08T19:15:05.558Z,3.90
2018-01-08T19:20:08.152Z,3.90
2018-01-08T19:25:10.732Z,3.80
2018-01-08T19:30:13.370Z,3.80
2018-01-08T19:35:15.933Z,3.70
2018-01-08T19:40:18.577Z,3.70
2018-01-08T19:45:21.224Z,3.70
2018-01-08T19:50:23.867Z,3.70
2018-01-08T19:55:27.199Z,3.60
2018-01-08T20:00:29.840Z,3.60
2018-01-08T20:05:32.506Z,3.50
2018-01-08T20:10:35.067Z,3.50
2018-01-08T20:15:37.701Z,3.40
2018-01-08T20:20:40.267Z,3.40
2018-01-08T20:25:42.858Z,3.40
2018-01-08T20:30:45.445Z,3.40
2018-01-08T20:35:48.049Z,3.30
2018-01-08T20:40:50.667Z,3.30
2018-01-08T20:45:53.252Z,3.30
2018-01-08T20:50:55.849Z,3.30
2018-01-08T20:55:59.244Z,3.20
2018-01-08T21:01:02.693Z,3.20
2018-01-08T21:06:05.362Z,3.20
2018-01-08T21:11:07.974Z,3.20
2018-01-08T21:16:10.535Z,3.20
2018-01-08T21:21:13.196Z,3.10
2018-01-08T21:26:15.785Z,3.10
2018-01-08T21:31:18.371Z,3.10
2018-01-08T21:36:20.979Z,3.10
2018-01-08T21:41:23.635Z,3.10
2018-01-08T21:46:26.227Z,3.10
2018-01-08T21:51:28.818Z,3.00
2018-01-08T21:56:31.464Z,3.10
2018-01-08T22:01:34.846Z,3.00
2018-01-08T22:06:37.428Z,3.00
2018-01-08T22:11:40.055Z,3.00
2018-01-08T22:16:42.712Z,3.00
2018-01-08T22:21:45.327Z,3.00
2018-01-08T22:26:48.708Z,2.90
2018-01-08T22:31:51.288Z,2.90
2018-01-08T22:36:53.860Z,2.90
2018-01-08T22:41:56.422Z,2.90
2018-01-08T22:46:59.011Z,2.90
2018-01-08T22:52:01.586Z,2.90
2018-01-08T22:57:04.935Z,2.80
2018-01-08T23:02:07.528Z,2.80
2018-01-08T23:07:10.119Z,2.80
2018-01-08T23:12:12.696Z,2.80
2018-01-08T23:17:15.285Z,2.80
2018-01-08T23:22:17.881Z,2.80
2018-01-08T23:27:20.531Z,2.80
2018-01-08T23:32:23.893Z,2.80
2018-01-08T23:37:26.525Z,2.80
2018-01-08T23:42:29.118Z,2.80
2018-01-08T23:47:31.672Z,2.80
2018-01-08T23:52:34.289Z,2.80
2018-01-08T23:57:36.943Z,2.90
